Time;durP1;ratioP1;P1;durP2;ratioP2;P2;SDS_P1;SDS_P2;PMS_P1;PMS_P2;Temp;Humidity;BMP_temperature;BMP_pressure;BME280_temperature;BME280_humidity;BME280_pressure;Samples;Min_cycle;Max_cycle;Signal;HPM_P1;HPM_P2
2021/11/26 06:58:32;;;;;;;23.65;12.23;;;;;;;3.14;84.34;100107.30;1692333;81;21202;-46
2021/11/26 07:05:09;;;;;;;22.03;12.57;;;;;;;3.20;84.25;100094.54;1729798;82;21088;-41
2021/11/26 07:07:51;;;;;;;19.55;12.03;;;;;;;3.26;84.10;100070.55;1756265;80;21369;-41
2021/11/26 07:21:35;;;;;;;15.03;9.38;;;;;;;3.51;83.50;100094.02;1617018;86;21175;-47
2021/11/26 07:24:05;;;;;;;21.17;12.40;;;;;;;3.57;83.30;100087.70;1585664;86;21090;-46
2021/11/26 07:26:49;;;;;;;27.00;12.70;;;;;;;3.62;83.13;100088.70;1601850;87;21110;-45
2021/11/26 07:29:56;;;;;;;19.70;11.55;;;;;;;3.66;82.89;100082.77;1616912;87;21349;-41
2021/11/26 07:33:08;;;;;;;21.60;12.50;;;;;;;3.69;82.78;100067.73;1632315;87;21079;-41
2021/11/26 07:36:02;;;;;;;21.12;12.50;;;;;;;3.73;82.63;100074.31;1564133;88;21175;-42
2021/11/26 07:39:21;;;;;;;25.57;12.55;;;;;;;3.73;82.50;100063.96;1537739;91;21094;-45
2021/11/26 07:49:53;;;;;;;19.00;11.08;;;;;;;3.84;82.38;100060.34;1516370;91;23070;-39
2021/11/26 07:52:20;;;;;;;25.15;12.07;;;;;;;3.91;82.19;100064.80;1533822;92;21730;-39
2021/11/26 07:54:47;;;;;;;21.25;12.23;;;;;;;3.96;81.93;100070.97;1535268;91;21156;-40
2021/11/26 07:57:14;;;;;;;21.45;11.85;;;;;;;4.02;81.99;100060.30;1527364;92;21058;-47
2021/11/26 07:59:41;;;;;;;21.82;11.83;;;;;;;4.07;81.55;100078.98;1518930;92;21692;-41
2021/11/26 08:02:09;;;;;;;19.00;11.73;;;;;;;4.13;81.71;100069.19;1516210;93;21555;-38
2021/11/26 08:04:36;;;;;;;17.90;10.53;;;;;;;4.18;81.22;100068.45;1498886;94;21077;-40
2021/11/26 08:07:04;;;;;;;24.12;12.20;;;;;;;4.21;81.21;100088.34;1495360;94;21113;-47
2021/11/26 08:09:32;;;;;;;20.23;13.05;;;;;;;4.22;81.16;100089.66;1502860;94;21070;-47
2021/11/26 08:11:59;;;;;;;20.72;11.78;;;;;;;4.25;81.18;100080.69;1500991;93;21120;-41
2021/11/26 08:14:26;;;;;;;22.37;12.85;;;;;;;4.30;81.25;100082.51;1550452;90;21067;-41
2021/11/26 08:16:56;;;;;;;20.30;11.30;;;;;;;4.35;81.09;100072.70;1601532;88;21107;-39
2021/11/26 08:19:24;;;;;;;22.13;11.53;;;;;;;4.42;80.74;100071.11;1604333;88;21606;-40
2021/11/26 08:21:55;;;;;;;14.93;10.55;;;;;;;4.45;80.54;100074.63;1602689;88;21643;-40
2021/11/26 08:24:22;;;;;;;20.00;12.15;;;;;;;4.49;80.50;100066.08;1600505;87;21017;-40
2021/11/26 08:27:20;;;;;;;20.62;12.00;;;;;;;4.52;80.39;100066.55;1612305;87;21076;-48
2021/11/26 08:30:12;;;;;;;21.05;12.53;;;;;;;4.53;79.72;100065.31;1620840;85;21100;-39
2021/11/26 08:33:33;;;;;;;18.42;11.60;;;;;;;4.52;79.92;100063.96;1620961;87;21007;-39
2021/11/26 08:36:11;;;;;;;17.87;12.05;;;;;;;4.51;79.99;100064.39;1615102;87;21097;-45
2021/11/26 08:38:38;;;;;;;19.67;12.43;;;;;;;4.53;79.72;100070.50;1574602;89;21071;-47
2021/11/26 08:41:06;;;;;;;19.48;12.60;;;;;;;4.57;79.95;100053.70;1581422;89;21553;-39
2021/11/26 08:43:33;;;;;;;19.37;11.12;;;;;;;4.60;79.71;100058.53;1577744;89;21061;-39
2021/11/26 08:46:00;;;;;;;20.97;13.10;;;;;;;4.63;79.48;100062.89;1621748;87;21079;-46
2021/11/26 08:48:27;;;;;;;20.20;12.65;;;;;;;4.64;79.27;100051.67;1623910;87;21458;-39
2021/11/26 08:50:54;;;;;;;21.77;12.90;;;;;;;4.65;79.42;100053.45;1620673;87;21661;-38
2021/11/26 08:53:21;;;;;;;23.70;13.08;;;;;;;4.68;79.24;100048.31;1621746;87;21449;-39
2021/11/26 08:55:52;;;;;;;23.95;13.48;;;;;;;4.71;78.90;100066.11;1578614;88;21663;-47
2021/11/26 08:58:18;;;;;;;24.52;12.50;;;;;;;4.74;79.07;100045.41;1573529;88;21016;-47
2021/11/26 09:00:45;;;;;;;27.85;13.43;;;;;;;4.77;78.95;100050.67;1574939;88;21108;-44
2021/11/26 09:03:14;;;;;;;27.50;12.98;;;;;;;4.81;78.89;100041.22;1575443;88;21036;-46
2021/11/26 09:05:42;;;;;;;21.52;12.23;;;;;;;4.86;78.70;100040.02;1579379;88;21176;-39
2021/11/26 09:08:14;;;;;;;24.80;12.60;;;;;;;4.90;78.57;100036.22;1579377;89;21068;-45
2021/11/26 09:10:39;;;;;;;21.20;12.13;;;;;;;4.92;78.28;100033.64;1573044;89;21638;-48
2021/11/26 09:13:06;;;;;;;20.02;11.88;;;;;;;4.92;78.29;100019.39;1574691;89;21593;-39
2021/11/26 09:15:37;;;;;;;21.62;11.93;;;;;;;4.95;78.48;100023.34;1577073;88;21147;-46
2021/11/26 09:18:08;;;;;;;19.85;12.18;;;;;;;4.97;78.39;100026.41;1571854;89;21067;-40
2021/11/26 09:20:38;;;;;;;22.02;12.80;;;;;;;5.02;78.35;100026.50;1572737;88;21610;-47
2021/11/26 09:23:06;;;;;;;23.75;12.60;;;;;;;5.06;78.27;100017.94;1573475;90;21623;-51
2021/11/26 09:25:38;;;;;;;23.47;11.28;;;;;;;5.11;78.28;100017.59;1571789;89;21137;-53
2021/11/26 09:28:18;;;;;;;23.63;12.47;;;;;;;5.19;77.96;100022.91;1573182;89;21075;-39
2021/11/26 09:30:50;;;;;;;22.13;12.63;;;;;;;5.25;77.76;100028.20;1574071;88;21152;-40
2021/11/26 09:33:21;;;;;;;17.70;10.88;;;;;;;5.30;77.52;100016.19;1575309;89;21121;-46
2021/11/26 09:35:47;;;;;;;23.40;11.83;;;;;;;5.33;77.22;100006.74;1573616;89;21689;-46
2021/11/26 09:38:15;;;;;;;20.00;11.12;;;;;;;5.37;77.14;100018.45;1572999;89;21039;-45
2021/11/26 09:40:44;;;;;;;17.23;11.18;;;;;;;5.39;77.12;100014.15;1570806;89;21764;-39
2021/11/26 09:43:11;;;;;;;18.00;12.33;;;;;;;5.40;76.96;100012.03;1571875;90;21040;-47
2021/11/26 09:45:41;;;;;;;20.60;12.47;;;;;;;5.41;77.01;100010.75;1574403;89;21095;-47
2021/11/26 09:48:13;;;;;;;18.05;11.38;;;;;;;5.42;76.86;100001.24;1567846;89;21063;-39
2021/11/26 09:50:40;;;;;;;17.20;11.88;;;;;;;5.46;76.95;99998.73;1571749;88;21071;-39
2021/11/26 09:53:18;;;;;;;21.87;11.75;;;;;;;5.50;76.85;100006.98;1577279;88;21041;-39
2021/11/26 09:55:49;;;;;;;23.42;13.08;;;;;;;5.54;76.82;99992.34;1614603;87;21075;-41
2021/11/26 09:58:16;;;;;;;17.25;11.33;;;;;;;5.58;76.61;100003.23;1619378;87;21612;-38
2021/11/26 10:00:42;;;;;;;22.07;11.78;;;;;;;5.61;76.33;99989.86;1617736;87;21516;-39
2021/11/26 10:03:23;;;;;;;16.65;11.30;;;;;;;5.62;76.18;99985.54;1615120;87;21008;-48
2021/11/26 10:05:51;;;;;;;18.95;10.88;;;;;;;5.63;76.19;99976.93;1576555;89;21554;-40
2021/11/26 10:08:22;;;;;;;18.80;10.98;;;;;;;5.66;76.22;99975.66;1576807;89;21628;-39
2021/11/26 10:10:51;;;;;;;16.23;10.03;;;;;;;5.69;76.06;99975.72;1584473;89;21125;-47
2021/11/26 10:13:18;;;;;;;15.90;11.08;;;;;;;5.72;76.06;99966.66;1619662;87;21442;-39
2021/11/26 10:15:50;;;;;;;20.30;12.33;;;;;;;5.75;75.81;99969.31;1611784;87;21559;-47
2021/11/26 10:18:19;;;;;;;18.87;11.63;;;;;;;5.79;75.68;99967.62;1616069;87;21059;-39
2021/11/26 10:21:05;;;;;;;22.67;11.88;;;;;;;5.80;75.46;99966.36;1610278;87;21163;-46
2021/11/26 10:23:42;;;;;;;19.00;11.33;;;;;;;5.80;75.36;99962.47;1611395;87;21020;-39
2021/11/26 10:26:20;;;;;;;27.00;12.98;;;;;;;5.81;75.26;99950.36;1565675;90;21077;-39
2021/11/26 10:28:51;;;;;;;18.30;11.60;;;;;;;5.84;75.36;99952.55;1567611;89;21053;-47
2021/11/26 10:31:28;;;;;;;21.82;11.30;;;;;;;5.88;75.34;99945.69;1564907;89;21080;-39
2021/11/26 10:33:57;;;;;;;22.17;10.50;;;;;;;5.92;75.44;99931.94;1564484;90;21110;-39
2021/11/26 10:36:25;;;;;;;19.50;11.30;;;;;;;6.01;75.05;99935.06;1578530;88;21384;-39
2021/11/26 10:38:53;;;;;;;16.75;10.32;;;;;;;6.08;74.80;99943.37;1580775;89;21381;-46
2021/11/26 10:41:26;;;;;;;18.80;10.95;;;;;;;6.14;74.66;99944.31;1586743;89;21528;-38
2021/11/26 10:43:56;;;;;;;17.40;10.20;;;;;;;6.20;74.39;99930.52;1597558;89;21032;-47
2021/11/26 10:49:30;;;;;;;14.68;9.73;;;;;;;6.25;73.83;99917.59;1620732;87;21491;-46
2021/11/26 10:57:25;;;;;;;18.15;10.00;;;;;;;6.22;74.42;99906.76;1587213;89;21117;-44
2021/11/26 10:59:34;;;;;;;17.85;11.78;;;;;;;6.28;74.47;99892.97;1582738;89;21077;-46
2021/11/26 11:02:06;;;;;;;17.10;9.45;;;;;;;6.32;74.20;99883.02;1573733;89;21615;-39
2021/11/26 11:04:40;;;;;;;20.97;9.08;;;;;;;6.40;74.36;99871.00;1570350;89;21051;-47
2021/11/26 11:07:09;;;;;;;20.75;9.88;;;;;;;6.48;74.37;99865.44;1575354;89;21643;-40
2021/11/26 11:09:54;;;;;;;17.00;9.63;;;;;;;6.56;73.84;99867.70;1571718;89;21610;-46
2021/11/26 11:12:36;;;;;;;12.33;7.58;;;;;;;6.61;73.69;99876.42;1571589;89;21150;-40
2021/11/26 11:15:09;;;;;;;13.28;8.90;;;;;;;6.67;73.43;99863.91;1570452;89;21143;-46
2021/11/26 11:17:36;;;;;;;15.83;8.55;;;;;;;6.70;73.24;99856.12;1574034;89;21093;-38
2021/11/26 11:20:09;;;;;;;11.30;8.60;;;;;;;6.80;73.25;99854.05;1575984;89;21569;-39
2021/11/26 11:22:37;;;;;;;16.73;8.08;;;;;;;6.89;72.89;99845.43;1618600;87;21097;-45
2021/11/26 11:25:08;;;;;;;13.00;8.60;;;;;;;6.99;72.56;99847.25;1614703;87;21048;-39
2021/11/26 11:27:35;;;;;;;11.18;8.15;;;;;;;7.06;72.39;99841.66;1618336;86;21552;-40
2021/11/26 11:30:03;;;;;;;17.25;9.68;;;;;;;7.13;71.97;99838.23;1616820;86;21079;-39
2021/11/26 11:32:30;;;;;;;14.40;8.30;;;;;;;7.22;71.42;99834.39;1614627;87;21114;-39
2021/11/26 11:34:57;;;;;;;24.45;9.83;;;;;;;7.30;71.02;99848.31;1582234;89;21062;-38
2021/11/26 11:37:28;;;;;;;12.50;8.70;;;;;;;7.32;71.01;99854.85;1583634;89;21071;-46
2021/11/26 11:39:58;;;;;;;16.40;9.30;;;;;;;7.26;70.82;99841.37;1565909;90;21042;-40
2021/11/26 11:42:34;;;;;;;14.47;9.50;;;;;;;7.16;70.99;99835.66;1569038;89;21064;-49
2021/11/26 11:45:10;;;;;;;15.35;10.08;;;;;;;7.07;71.32;99842.09;1568551;89;21242;-41
2021/11/26 11:47:46;;;;;;;12.90;9.18;;;;;;;7.00;71.51;99862.42;1566885;89;21671;-41
2021/11/26 11:50:19;;;;;;;14.53;9.28;;;;;;;6.91;71.61;99856.30;1569400;89;21175;-39
2021/11/26 11:52:51;;;;;;;14.65;8.83;;;;;;;6.82;71.86;99844.95;1554918;89;21056;-47
2021/11/26 11:55:29;;;;;;;13.53;8.68;;;;;;;6.76;72.32;99837.97;1547411;90;21093;-40
2021/11/26 11:58:16;;;;;;;16.85;9.48;;;;;;;6.74;72.26;99837.09;1542576;90;21046;-40
2021/11/26 12:00:47;;;;;;;16.07;9.20;;;;;;;6.71;72.32;99842.25;1550784;90;21638;-40
2021/11/26 12:03:23;;;;;;;15.00;10.18;;;;;;;6.68;72.25;99827.95;1558901;90;21089;-39
2021/11/26 12:05:57;;;;;;;18.23;9.33;;;;;;;6.66;72.49;99824.44;1588502;88;21235;-46
2021/11/26 12:08:24;;;;;;;13.62;8.93;;;;;;;6.64;72.51;99834.84;1578458;88;21051;-45
2021/11/26 12:10:56;;;;;;;16.25;8.33;;;;;;;6.65;72.40;99838.30;1557871;89;21064;-40
2021/11/26 12:13:33;;;;;;;13.15;9.00;;;;;;;6.61;72.31;99855.63;1559023;90;21128;-40
2021/11/26 12:16:16;;;;;;;16.97;9.13;;;;;;;6.56;72.55;99827.41;1560457;89;21196;-39
2021/11/26 12:18:48;;;;;;;19.57;9.33;;;;;;;6.51;72.80;99838.63;1592681;88;21036;-39
2021/11/26 12:21:18;;;;;;;18.10;9.63;;;;;;;6.48;72.83;99843.34;1586401;88;21085;-40
2021/11/26 12:23:53;;;;;;;17.82;9.88;;;;;;;6.45;72.92;99829.48;1567243;89;21907;-46
2021/11/26 12:26:26;;;;;;;16.37;8.88;;;;;;;6.43;73.02;99829.44;1573223;88;21130;-38
2021/11/26 12:29:02;;;;;;;28.27;12.82;;;;;;;6.39;73.02;99814.27;1563620;89;21045;-40
2021/11/26 12:31:32;;;;;;;20.82;9.98;;;;;;;6.38;73.12;99808.63;1585218;88;21110;-47
2021/11/26 12:34:03;;;;;;;20.25;10.08;;;;;;;6.37;73.17;99812.49;1590141;88;21068;-39
2021/11/26 12:36:49;;;;;;;17.65;9.95;;;;;;;6.36;73.02;99812.05;1586564;88;21136;-39
2021/11/26 12:39:25;;;;;;;21.25;10.03;;;;;;;6.36;73.13;99797.77;1581257;88;21108;-39
2021/11/26 12:42:00;;;;;;;20.27;9.70;;;;;;;6.35;72.97;99781.30;1576770;88;21092;-46
2021/11/26 12:44:35;;;;;;;18.07;10.08;;;;;;;6.35;73.19;99777.84;1578599;87;21084;-40
2021/11/26 12:47:11;;;;;;;15.90;9.80;;;;;;;6.35;73.27;99769.61;1567175;90;21746;-48
2021/11/26 12:52:16;;;;;;;18.82;8.85;;;;;;;6.39;72.90;99777.02;1591246;88;21067;-41
2021/11/26 12:54:47;;;;;;;16.27;9.18;;;;;;;6.34;72.95;99784.77;1579651;89;21093;-40
2021/11/26 12:57:27;;;;;;;19.57;9.85;;;;;;;6.31;73.16;99787.33;1583372;89;21045;-49
2021/11/26 13:00:04;;;;;;;21.70;9.78;;;;;;;6.30;73.17;99801.61;1584158;88;21574;-47
2021/11/26 13:02:35;;;;;;;19.65;8.88;;;;;;;6.27;72.99;99780.37;1587910;89;21077;-47
2021/11/26 13:05:09;;;;;;;18.73;9.13;;;;;;;6.23;73.26;99785.09;1569291;90;21516;-48
2021/11/26 13:07:39;;;;;;;14.18;8.53;;;;;;;6.21;73.22;99780.75;1568598;90;21041;-48
2021/11/26 13:10:09;;;;;;;14.00;9.33;;;;;;;6.17;73.48;99785.47;1560246;90;21126;-48
2021/11/26 13:12:40;;;;;;;13.32;9.35;;;;;;;6.12;73.55;99794.08;1566155;89;21049;-40
2021/11/26 13:15:09;;;;;;;14.30;8.55;;;;;;;6.09;73.73;99793.20;1574977;89;21122;-40
2021/11/26 13:17:39;;;;;;;17.37;8.35;;;;;;;6.07;73.90;99788.39;1566008;90;21113;-47
2021/11/26 13:20:16;;;;;;;17.25;9.48;;;;;;;6.05;73.83;99805.27;1554881;89;21152;-46
2021/11/26 13:22:48;;;;;;;28.60;10.15;;;;;;;6.03;73.75;99805.69;1577265;89;21917;-46
2021/11/26 13:25:25;;;;;;;14.50;9.35;;;;;;;6.01;73.93;99811.70;1616330;86;21604;-47
2021/11/26 13:28:09;;;;;;;17.37;10.53;;;;;;;5.97;74.04;99810.83;1618806;87;21053;-39
2021/11/26 13:30:53;;;;;;;18.65;9.83;;;;;;;5.96;73.92;99809.48;1580338;87;21112;-45
2021/11/26 13:33:28;;;;;;;22.13;12.65;;;;;;;5.92;73.97;99796.91;1596069;87;21055;-46
2021/11/26 13:36:07;;;;;;;26.62;11.65;;;;;;;5.89;74.19;99790.34;1611648;86;21568;-46
2021/11/26 13:38:44;;;;;;;20.40;12.23;;;;;;;5.86;74.32;99787.30;1611045;89;21087;-39
2021/11/26 13:41:25;;;;;;;23.12;13.40;;;;;;;5.84;74.40;99772.54;1611253;87;21079;-46
2021/11/26 13:43:56;;;;;;;26.27;14.73;;;;;;;5.82;74.56;99765.17;1629517;87;21454;-38
2021/11/26 13:46:33;;;;;;;21.95;13.25;;;;;;;5.80;74.87;99752.19;1615139;87;21097;-39
2021/11/26 13:49:08;;;;;;;22.25;13.70;;;;;;;5.80;74.88;99748.72;1613840;87;21050;-46
2021/11/26 13:51:40;;;;;;;29.48;13.03;;;;;;;5.80;74.61;99746.12;1597586;87;21104;-39
2021/11/26 13:54:11;;;;;;;23.45;12.95;;;;;;;5.77;74.45;99725.31;1614575;87;21069;-47
2021/11/26 13:56:43;;;;;;;21.73;12.37;;;;;;;5.74;74.46;99730.06;1621008;86;21059;-46
2021/11/26 13:59:15;;;;;;;17.10;11.53;;;;;;;5.72;74.70;99726.98;1627067;88;21087;-46
2021/11/26 14:01:43;;;;;;;22.77;11.90;;;;;;;5.69;74.85;99733.45;1618412;87;21104;-39
2021/11/26 14:04:21;;;;;;;18.05;10.95;;;;;;;5.67;74.98;99735.14;1582778;89;21487;-46
2021/11/26 14:07:00;;;;;;;16.25;10.93;;;;;;;5.65;75.07;99717.40;1588157;89;21123;-40
2021/11/26 14:09:27;;;;;;;19.87;11.63;;;;;;;5.61;75.13;99731.63;1541401;92;21112;-40
2021/11/26 14:11:54;;;;;;;17.98;10.85;;;;;;;5.60;75.24;99727.72;1560379;90;21129;-48
2021/11/26 14:14:22;;;;;;;19.00;11.03;;;;;;;5.58;75.38;99721.66;1583367;89;21067;-39
2021/11/26 14:16:58;;;;;;;23.32;11.12;;;;;;;5.55;75.55;99721.17;1564620;89;21132;-48
2021/11/26 14:19:46;;;;;;;16.17;10.48;;;;;;;5.52;75.66;99708.19;1642783;87;21071;-41
2021/11/26 14:22:16;;;;;;;17.77;10.75;;;;;;;5.51;75.62;99712.07;1592777;88;21644;-46
2021/11/26 14:24:52;;;;;;;29.35;10.98;;;;;;;5.50;75.59;99718.09;1598874;86;21058;-46
2021/11/26 14:27:35;;;;;;;16.02;10.10;;;;;;;5.50;75.50;99715.49;1612853;87;21385;-47
2021/11/26 14:30:06;;;;;;;19.02;11.83;;;;;;;5.49;75.48;99720.24;1616813;87;21605;-47
2021/11/26 14:32:36;;;;;;;18.17;10.05;;;;;;;5.48;75.38;99732.34;1595083;89;21120;-47
2021/11/26 14:35:10;;;;;;;19.70;10.23;;;;;;;5.48;75.37;99736.24;1579192;89;21151;-40
2021/11/26 14:37:38;;;;;;;21.25;12.00;;;;;;;5.46;75.45;99727.58;1584786;89;21357;-40
2021/11/26 14:40:23;;;;;;;19.55;10.20;;;;;;;5.46;75.49;99726.71;1559581;90;21144;-40
2021/11/26 14:43:09;;;;;;;17.42;10.58;;;;;;;5.45;75.33;99727.14;1577757;90;21080;-47
2021/11/26 14:45:40;;;;;;;16.42;9.18;;;;;;;5.45;75.37;99719.36;1635911;86;21707;-47
2021/11/26 14:48:20;;;;;;;19.55;10.15;;;;;;;5.45;75.36;99706.39;1586968;89;21080;-47
2021/11/26 14:50:50;;;;;;;16.45;9.75;;;;;;;5.46;75.48;99718.92;1579945;89;21639;-47
2021/11/26 14:53:19;;;;;;;13.13;9.48;;;;;;;5.45;75.51;99719.36;1577245;89;21178;-46
2021/11/26 14:55:47;;;;;;;17.77;9.65;;;;;;;5.45;75.56;99706.78;1561949;90;22045;-39
2021/11/26 14:58:14;;;;;;;18.65;11.12;;;;;;;5.46;75.68;99701.64;1598329;88;21444;-46
2021/11/26 15:00:48;;;;;;;19.20;10.50;;;;;;;5.45;75.57;99715.47;1597338;88;21092;-45
2021/11/26 15:03:15;;;;;;;25.80;14.07;;;;;;;5.47;75.64;99715.05;1591404;89;21053;-46
2021/11/26 15:05:44;;;;;;;28.12;14.45;;;;;;;5.45;75.62;99714.17;1595298;88;21076;-39
2021/11/26 15:08:12;;;;;;;24.80;11.48;;;;;;;5.48;75.61;99706.41;1590230;88;21051;-48
2021/11/26 15:10:39;;;;;;;19.70;11.12;;;;;;;5.48;75.60;99720.67;1590075;88;21164;-40
2021/11/26 15:13:06;;;;;;;19.40;11.30;;;;;;;5.50;75.66;99727.17;1588652;89;21003;-40
2021/11/26 15:15:33;;;;;;;26.52;11.95;;;;;;;5.50;75.75;99728.03;1590617;88;21607;-47
2021/11/26 15:18:00;;;;;;;20.20;11.53;;;;;;;5.50;75.90;99716.36;1603046;88;21033;-46
2021/11/26 15:20:27;;;;;;;21.70;11.25;;;;;;;5.51;75.92;99725.91;1571929;90;21169;-47
2021/11/26 15:22:53;;;;;;;17.77;10.20;;;;;;;5.52;76.02;99729.38;1590886;90;21595;-40
2021/11/26 15:25:22;;;;;;;20.72;10.78;;;;;;;5.54;76.12;99727.66;1600262;88;21429;-46
2021/11/26 15:27:50;;;;;;;21.20;10.58;;;;;;;5.55;76.09;99717.72;1599888;89;21184;-39
2021/11/26 15:30:17;;;;;;;20.55;11.00;;;;;;;5.54;76.20;99716.84;1596522;88;21144;-39
2021/11/26 15:32:45;;;;;;;19.00;11.08;;;;;;;5.54;76.30;99717.28;1574370;91;21079;-47
2021/11/26 15:35:12;;;;;;;21.87;11.15;;;;;;;5.53;76.41;99716.84;1594241;88;21092;-40
2021/11/26 15:37:40;;;;;;;17.27;11.53;;;;;;;5.52;76.46;99705.59;1599569;90;21551;-48
2021/11/26 15:40:08;;;;;;;21.42;12.25;;;;;;;5.51;76.69;99705.16;1598993;88;21132;-47
2021/11/26 15:42:35;;;;;;;19.02;11.15;;;;;;;5.50;76.82;99702.09;1586528;89;21050;-38
2021/11/26 15:45:02;;;;;;;17.55;11.15;;;;;;;5.51;76.85;99701.27;1596692;88;21080;-39
2021/11/26 15:47:29;;;;;;;27.02;11.73;;;;;;;5.52;76.97;99693.91;1565613;92;21131;-40
2021/11/26 15:49:56;;;;;;;18.07;10.98;;;;;;;5.53;77.08;99677.48;1542917;92;21559;-47
2021/11/26 15:52:23;;;;;;;19.50;11.75;;;;;;;5.56;76.99;99676.63;1550527;89;21156;-39
2021/11/26 15:54:50;;;;;;;17.62;10.65;;;;;;;5.57;77.02;99674.08;1593955;89;21116;-39
2021/11/26 15:57:17;;;;;;;23.22;12.25;;;;;;;5.57;77.16;99671.48;1592801;89;21081;-46
2021/11/26 15:59:43;;;;;;;17.98;11.65;;;;;;;5.57;77.21;99674.08;1570019;90;21124;-46
2021/11/26 16:02:11;;;;;;;20.55;11.97;;;;;;;5.58;77.26;99680.14;1581814;90;21580;-46
2021/11/26 16:04:39;;;;;;;18.62;11.28;;;;;;;5.58;77.26;99671.05;1575251;90;21076;-46
2021/11/26 16:07:06;;;;;;;21.33;11.70;;;;;;;5.59;77.25;99669.77;1558320;91;21139;-45
2021/11/26 16:09:33;;;;;;;17.40;10.28;;;;;;;5.61;77.21;99670.64;1565832;90;21136;-39
2021/11/26 16:12:00;;;;;;;17.95;9.78;;;;;;;5.63;77.19;99677.16;1571056;90;21123;-39
2021/11/26 16:14:27;;;;;;;19.57;11.15;;;;;;;5.64;77.22;99670.25;1571139;91;21091;-46
2021/11/26 16:16:54;;;;;;;20.15;11.90;;;;;;;5.64;77.19;99671.11;1580225;89;21058;-47
2021/11/26 16:19:22;;;;;;;21.35;10.80;;;;;;;5.63;77.23;99682.35;1570709;90;21068;-47
2021/11/26 16:21:50;;;;;;;16.97;10.82;;;;;;;5.64;77.25;99672.84;1575949;89;21096;-47
2021/11/26 16:24:16;;;;;;;19.07;11.28;;;;;;;5.65;77.13;99669.38;1650934;87;21198;-46
2021/11/26 16:26:44;;;;;;;14.87;10.32;;;;;;;5.67;77.01;99675.45;1646906;85;21189;-46
2021/11/26 16:29:11;;;;;;;18.05;9.73;;;;;;;5.68;76.87;99680.65;1631026;87;21658;-46
2021/11/26 16:31:58;;;;;;;13.18;9.18;;;;;;;5.69;76.82;99677.66;1646917;85;21101;-40
2021/11/26 16:36:59;;;;;;;12.53;8.50;;;;;;;5.69;76.73;99663.38;1635912;87;21112;-40
2021/11/26 16:39:29;;;;;;;14.45;8.55;;;;;;;5.69;76.55;99673.77;1634344;88;21072;-39
2021/11/26 16:41:56;;;;;;;14.43;8.68;;;;;;;5.68;76.43;99669.39;1634266;86;21143;-47
2021/11/26 16:44:23;;;;;;;13.45;8.15;;;;;;;5.68;76.30;99665.50;1654339;87;21559;-40
2021/11/26 16:46:52;;;;;;;21.35;8.90;;;;;;;5.68;76.24;99655.98;1630806;85;21566;-48
2021/11/26 16:49:22;;;;;;;16.85;10.10;;;;;;;5.68;76.27;99652.09;1612308;87;20995;-40
2021/11/26 16:51:51;;;;;;;13.90;8.53;;;;;;;5.70;76.10;99654.30;1624550;87;21093;-45
2021/11/26 16:54:19;;;;;;;14.73;9.28;;;;;;;5.71;75.92;99645.66;1629238;87;21082;-47
2021/11/26 16:56:46;;;;;;;15.53;8.75;;;;;;;5.70;75.69;99645.64;1590987;89;21110;-40
2021/11/26 16:59:14;;;;;;;15.88;9.95;;;;;;;5.69;75.75;99640.88;1591183;90;21677;-40
2021/11/26 17:01:42;;;;;;;15.35;8.95;;;;;;;5.69;75.71;99642.19;1615725;87;21114;-47
2021/11/26 17:04:11;;;;;;;15.03;9.20;;;;;;;5.69;75.43;99638.72;1638897;87;21583;-47
2021/11/26 17:06:44;;;;;;;18.50;9.85;;;;;;;5.69;75.21;99628.34;1619564;86;21184;-40
2021/11/26 17:09:11;;;;;;;13.58;8.38;;;;;;;5.69;75.21;99620.55;1608314;87;21526;-47
2021/11/26 17:11:40;;;;;;;17.35;10.15;;;;;;;5.69;75.02;99627.91;1616459;87;21119;-40
2021/11/26 17:14:08;;;;;;;15.23;9.80;;;;;;;5.69;75.07;99618.83;1616940;88;21115;-45
2021/11/26 17:16:36;;;;;;;15.83;10.28;;;;;;;5.71;74.86;99614.94;1616655;87;21100;-40
